Selawik, AK

10:06 PM AKDT on October 22, 2014 (GMT -0800)
Buckland | Change Station
CLOSE
Current Station
Airport
Location: Buckland,
Elevation: 30 ft
Nearby Weather Stations
Active Advisory: High Surf Advisory

Elev 30 ft 65.98 °N, 161.15 °W | Updated 10 minutes ago

Clear
Clear
12 °F
Feels Like 12 °F
N
0
Wind Variable Wind from North

Today
High -- | Low -- °F
--% Chance of Precip.
Yesterday
High -- | Low -- °F
Precip. -- in
9:58 AM 6:40 PM
Waning Crescent, 0% visible
Pressure 29.88 in
Visibility 10.0 miles
Clouds Clear
Dew Point 7 °F
Humidity 79%
Rainfall 0.00 in
Snow Depth Not available.
UV 0 out of 12
Pollen Not available.
Air Quality Not available.
Flu Activity Sporadic
METAR PABL 230556Z AUTO 00000KT 10SM CLR M11/M14 A2988 RMK AO1 11040 21110 52010

More Conditions Fewer Conditions

Pressure 29.88 in
Visibility 10.0 miles
Clouds Clear
Dew Point 7 °F
Humidity 79%
Rainfall 0.00 in
Snow Depth Not available.
UV 0 out of 12
Pollen Not available.
Air Quality Not available.
Flu Activity Sporadic
METAR PABL 230556Z AUTO 00000KT 10SM CLR M11/M14 A2988 RMK AO1 11040 21110 52010

More Conditions Fewer Conditions

10-Day Weather Forecast

Almanac

Astronomy

Oct. 22, 2014 Rise Set
Actual Time 9:58 AM AKDT 6:40 PM AKDT
Civil Twilight 9:03 AM AKDT 7:35 PM AKDT
Nautical Twilight 8:02 AM AKDT 8:36 PM AKDT
Astronomical Twilight 7:02 AM AKDT 9:36 PM AKDT
Moon 8:25 AM AKDT (10/22) 6:31 PM AKDT (10/22)
Length of Visible Light 10h 32m
Length of Day
8h 42m
Tomorrow will be 7m 18s shorter.
Waning Crescent, 0% of the Moon is Illuminated
Oct 23
Waning Crescent
Oct 23
New
Oct 30
First Quarter
Nov 6
Full
Nov 14
Last Quarter

Yesterday's Extremes

State Highs State Lows

Community

WunderPhotos

Upload Photos

1,764,194 photos uploaded!

Nearby

Snow Depth

Station Depth Elevation
Rocky Point 3 in 500 ft
Gobblers Knob 1 in 2030 ft
Coldfoot 5 in 1040 ft
Atigun Pass 15 in 4800 ft
Imnaviat Creek 22 in 3050 ft

Earthquake Activity

City Distance Mag. Time & Date
No recent earthquake activity has been reported nearby.
Minimum magnitude displayed is 2.5.

Coastal Water Temperatures

Place Temperature
No Stations Reporting

Nearby Weather Stations